createdAt,value
2019-03-10T00:01:35.367Z,8.63
2019-03-10T00:06:37.197Z,9.07
2019-03-10T00:11:39.020Z,6.77
2019-03-10T00:16:40.847Z,9.10
2019-03-10T00:21:42.727Z,7.90
2019-03-10T00:26:45.458Z,8.13
2019-03-10T00:31:47.323Z,8.40
2019-03-10T00:36:49.044Z,7.27
2019-03-10T00:42:04.040Z,7.17
2019-03-10T00:47:40.701Z,9.20
2019-03-10T00:52:44.395Z,6.93
2019-03-10T00:57:46.186Z,4.97
2019-03-10T01:02:48.042Z,4.60
2019-03-10T01:07:49.879Z,6.03
2019-03-10T01:12:52.002Z,3.67
2019-03-10T01:17:53.841Z,5.23
2019-03-10T01:22:55.753Z,2.70
2019-03-10T01:27:57.585Z,2.27
2019-03-10T01:33:34.257Z,3.10
2019-03-10T01:38:36.117Z,2.87
2019-03-10T01:43:39.294Z,1.27
2019-03-10T01:48:41.121Z,1.40
2019-03-10T01:53:42.986Z,1.60
2019-03-10T01:58:44.721Z,1.87
2019-03-10T02:03:46.633Z,1.77
2019-03-10T02:08:48.465Z,1.23
2019-03-10T02:13:50.395Z,2.27
2019-03-10T02:18:52.346Z,1.20
2019-03-10T02:23:54.245Z,1.63
2019-03-10T02:28:56.081Z,2.00
2019-03-10T02:33:58.014Z,1.83
2019-03-10T02:38:59.730Z,2.17
2019-03-10T02:44:01.572Z,2.83
2019-03-10T02:49:03.450Z,3.63
2019-03-10T02:54:05.386Z,6.13
2019-03-10T02:59:07.313Z,5.23
2019-03-10T03:04:09.059Z,3.47
2019-03-10T03:09:10.778Z,4.07
2019-03-10T03:14:12.491Z,5.37
2019-03-10T03:19:14.325Z,4.37
2019-03-10T03:24:16.084Z,7.70
2019-03-10T03:29:17.900Z,6.13
2019-03-10T03:34:19.679Z,5.23
2019-03-10T03:39:26.240Z,6.10
2019-03-10T03:44:28.007Z,7.80
2019-03-10T03:49:29.785Z,4.50
2019-03-10T03:54:31.498Z,5.60
2019-03-10T03:59:33.333Z,5.03
2019-03-10T04:04:35.068Z,5.17
2019-03-10T04:09:36.915Z,5.27
2019-03-10T04:14:38.605Z,6.00
2019-03-10T04:19:40.328Z,6.10
2019-03-10T04:24:42.114Z,4.70
2019-03-10T04:29:43.913Z,5.20
2019-03-10T04:34:45.631Z,8.70
2019-03-10T04:39:47.445Z,6.63
2019-03-10T04:44:49.173Z,8.40
2019-03-10T04:49:50.989Z,5.30
2019-03-10T04:55:05.277Z,6.93
2019-03-10T05:00:07.083Z,9.37
2019-03-10T05:05:08.809Z,10.80
2019-03-10T05:10:10.533Z,2.93
2019-03-10T05:15:12.269Z,7.23
2019-03-10T05:20:13.993Z,6.73
2019-03-10T05:25:16.038Z,6.13
2019-03-10T05:30:17.776Z,6.83
2019-03-10T05:35:19.601Z,9.70
2019-03-10T05:40:21.313Z,6.17
2019-03-10T05:45:23.135Z,9.33
2019-03-10T05:50:24.861Z,5.33
2019-03-10T05:55:26.603Z,8.80
2019-03-10T06:00:28.337Z,5.07
2019-03-10T06:05:30.077Z,3.90
2019-03-10T06:10:49.911Z,6.83
2019-03-10T06:15:51.708Z,4.60
2019-03-10T06:20:53.438Z,4.70
2019-03-10T06:25:56.032Z,8.13
2019-03-10T06:30:57.863Z,8.03
2019-03-10T06:35:59.573Z,2.53
2019-03-10T06:41:01.289Z,5.63
2019-03-10T06:46:03.017Z,6.67
2019-03-10T06:51:04.718Z,8.33
2019-03-10T06:56:06.442Z,5.30
2019-03-10T07:01:08.178Z,6.17
2019-03-10T07:06:09.922Z,9.10
2019-03-10T07:11:11.651Z,6.53
2019-03-10T07:16:13.365Z,5.50
2019-03-10T07:21:15.090Z,4.10
2019-03-10T07:26:16.798Z,5.03
2019-03-10T07:31:26.302Z,6.87
2019-03-10T07:36:50.596Z,4.53
2019-03-10T07:42:02.011Z,4.80
2019-03-10T07:47:23.211Z,5.10
2019-03-10T07:52:59.167Z,3.80
2019-03-10T07:58:26.024Z,6.90
2019-03-10T08:04:05.180Z,4.97
2019-03-10T08:09:24.728Z,2.23
2019-03-10T08:14:48.778Z,2.37
2019-03-10T08:20:07.296Z,4.40
2019-03-10T08:25:31.650Z,5.80
2019-03-10T08:30:55.547Z,2.93
2019-03-10T08:36:19.739Z,6.00
2019-03-10T08:41:39.392Z,7.97
2019-03-10T08:47:00.584Z,5.20
2019-03-10T08:52:24.482Z,3.90
2019-03-10T08:57:44.421Z,10.97
2019-03-10T09:03:15.502Z,12.80
2019-03-10T09:08:32.117Z,9.30
2019-03-10T09:13:51.864Z,8.03
2019-03-10T09:19:31.226Z,7.37
2019-03-10T09:24:52.430Z,7.33
2019-03-10T09:30:08.410Z,8.37
2019-03-10T09:35:18.181Z,7.03
2019-03-10T09:40:57.478Z,8.77
2019-03-10T09:46:08.908Z,6.03
2019-03-10T09:51:25.348Z,11.67
2019-03-10T09:56:47.522Z,4.97
2019-03-10T10:02:03.570Z,5.57
2019-03-10T10:07:12.264Z,6.70
2019-03-10T10:12:23.456Z,4.07
2019-03-10T10:17:53.810Z,4.20
2019-03-10T10:23:04.904Z,6.43
2019-03-10T10:28:29.322Z,5.77
2019-03-10T10:33:49.089Z,5.07
2019-03-10T10:39:16.863Z,5.10
2019-03-10T10:44:36.756Z,5.97
2019-03-10T10:49:56.800Z,3.90
2019-03-10T10:55:36.290Z,5.80
2019-03-10T11:00:46.537Z,7.70
2019-03-10T11:06:14.936Z,5.33
2019-03-10T11:11:27.579Z,4.27
2019-03-10T11:16:37.228Z,7.03
2019-03-10T11:22:10.387Z,1.90
2019-03-10T11:27:31.643Z,5.20
2019-03-10T11:32:58.516Z,5.87
2019-03-10T11:38:31.576Z,8.90
2019-03-10T11:43:55.402Z,3.67
2019-03-10T11:49:16.643Z,7.27
2019-03-10T11:54:31.860Z,7.43
2019-03-10T11:59:39.175Z,5.17
2019-03-10T12:05:03.517Z,8.50
2019-03-10T12:10:05.746Z,8.67
2019-03-10T12:15:07.927Z,9.70
2019-03-10T12:20:09.678Z,5.73
2019-03-10T12:25:11.423Z,7.17
2019-03-10T12:30:14.174Z,7.53
2019-03-10T12:35:15.903Z,6.10
2019-03-10T12:40:17.640Z,5.23
2019-03-10T12:45:19.354Z,4.77
2019-03-10T12:50:21.084Z,6.57
2019-03-10T12:55:22.808Z,8.03
2019-03-10T13:00:24.526Z,7.50
2019-03-10T13:05:28.203Z,9.80
2019-03-10T13:10:29.817Z,5.77
2019-03-10T13:15:31.527Z,7.53
2019-03-10T13:20:34.123Z,7.73
2019-03-10T13:25:35.908Z,7.53
2019-03-10T13:30:37.725Z,5.93
2019-03-10T13:35:39.455Z,5.93
2019-03-10T13:40:41.178Z,3.83
2019-03-10T13:45:42.966Z,5.83
2019-03-10T13:50:44.735Z,5.23
2019-03-10T13:55:46.591Z,5.13
2019-03-10T14:00:48.304Z,6.63
2019-03-10T14:05:50.065Z,5.77
2019-03-10T14:10:51.796Z,8.90
2019-03-10T14:15:53.614Z,9.20
2019-03-10T14:20:55.408Z,5.57
2019-03-10T14:25:57.149Z,5.43
2019-03-10T14:30:58.853Z,7.87
2019-03-10T14:36:00.641Z,10.97
2019-03-10T14:41:02.303Z,5.43
2019-03-10T14:46:04.093Z,7.93
2019-03-10T14:51:07.626Z,6.57
2019-03-10T14:56:09.370Z,8.17
2019-03-10T15:01:11.147Z,9.57
2019-03-10T15:06:12.935Z,4.97
2019-03-10T15:11:14.659Z,8.80
2019-03-10T15:16:16.491Z,5.53
2019-03-10T15:21:18.225Z,6.77
2019-03-10T15:26:20.067Z,7.70
2019-03-10T15:31:21.839Z,6.97
2019-03-10T15:36:23.574Z,7.67
2019-03-10T15:41:25.366Z,6.53
2019-03-10T15:46:27.140Z,7.80
2019-03-10T15:51:28.877Z,5.37
2019-03-10T15:56:36.318Z,8.47
2019-03-10T16:01:38.105Z,4.50
2019-03-10T16:06:39.821Z,4.00
2019-03-10T16:11:41.661Z,5.17
2019-03-10T16:16:43.413Z,6.17
2019-03-10T16:21:45.193Z,6.57
2019-03-10T16:26:46.941Z,5.23
2019-03-10T16:31:48.742Z,3.50
2019-03-10T16:36:50.518Z,5.80
2019-03-10T16:41:52.389Z,5.43
2019-03-10T16:46:54.062Z,7.83
2019-03-10T16:51:55.781Z,7.77
2019-03-10T16:56:57.509Z,5.27
2019-03-10T17:01:59.241Z,5.47
2019-03-10T17:07:01.003Z,8.40
2019-03-10T17:12:02.738Z,6.93
2019-03-10T17:17:04.473Z,7.70
2019-03-10T17:22:06.215Z,9.27
2019-03-10T17:27:07.939Z,8.87
2019-03-10T17:32:09.761Z,7.53
2019-03-10T17:37:11.533Z,8.30
2019-03-10T17:42:13.325Z,7.37
2019-03-10T17:47:15.054Z,9.60
2019-03-10T17:52:16.868Z,8.10
2019-03-10T17:57:18.695Z,9.30
2019-03-10T18:02:20.540Z,10.27
2019-03-10T18:07:22.459Z,7.27
2019-03-10T18:12:24.280Z,9.10
2019-03-10T18:17:26.371Z,7.30
2019-03-10T18:22:30.117Z,9.30
2019-03-10T18:27:31.864Z,6.67
2019-03-10T18:32:34.007Z,8.43
2019-03-10T18:37:35.833Z,6.40
2019-03-10T18:42:37.607Z,8.50
2019-03-10T18:47:39.387Z,5.87
2019-03-10T18:52:41.174Z,7.17
2019-03-10T18:57:43.418Z,8.33
2019-03-10T19:02:45.217Z,9.47
2019-03-10T19:07:47.035Z,10.23
2019-03-10T19:12:48.776Z,8.80
2019-03-10T19:17:50.696Z,7.37
2019-03-10T19:22:52.598Z,11.50
2019-03-10T19:27:54.353Z,9.00
2019-03-10T19:32:56.080Z,6.50
2019-03-10T19:37:57.802Z,10.63
2019-03-10T19:43:03.430Z,7.17
2019-03-10T19:48:05.184Z,5.77
2019-03-10T19:53:07.001Z,7.33
2019-03-10T19:58:08.801Z,7.87
2019-03-10T20:03:10.574Z,10.37
2019-03-10T20:08:12.325Z,11.37
2019-03-10T20:13:14.147Z,11.50
2019-03-10T20:18:15.908Z,10.97
2019-03-10T20:23:17.756Z,12.47
2019-03-10T20:28:19.597Z,13.43
2019-03-10T20:33:21.415Z,13.17
2019-03-10T20:38:23.300Z,12.23
2019-03-10T20:43:25.169Z,13.23
2019-03-10T20:48:26.889Z,16.57
2019-03-10T20:53:30.627Z,13.67
2019-03-10T20:58:34.785Z,11.80
2019-03-10T21:03:35.887Z,13.53
2019-03-10T21:08:37.634Z,13.17
2019-03-10T21:13:39.374Z,12.03
2019-03-10T21:18:41.188Z,11.03
2019-03-10T21:23:42.970Z,10.00
2019-03-10T21:28:44.706Z,13.07
2019-03-10T21:33:46.506Z,10.60
2019-03-10T21:38:48.294Z,12.10
2019-03-10T21:43:50.166Z,11.97
2019-03-10T21:48:51.966Z,14.97
2019-03-10T21:53:53.723Z,14.07
2019-03-10T21:58:55.518Z,16.37
2019-03-10T22:03:57.246Z,18.20
2019-03-10T22:08:59.048Z,20.40
2019-03-10T22:14:00.822Z,20.73
2019-03-10T22:19:02.612Z,17.13
2019-03-10T22:24:04.332Z,18.23
2019-03-10T22:29:06.144Z,24.43
2019-03-10T22:34:07.878Z,16.17
2019-03-10T22:39:09.720Z,14.60
2019-03-10T22:44:11.486Z,17.53
2019-03-10T22:49:13.267Z,13.00
2019-03-10T22:54:15.038Z,17.93
2019-03-10T22:59:16.758Z,18.50
2019-03-10T23:04:18.608Z,25.10
2019-03-10T23:09:20.371Z,22.63
2019-03-10T23:14:22.090Z,22.63
2019-03-10T23:19:23.916Z,24.33
2019-03-10T23:24:25.652Z,25.17
2019-03-10T23:29:27.466Z,23.27
2019-03-10T23:34:29.200Z,24.37
2019-03-10T23:39:31.022Z,25.47
2019-03-10T23:44:32.754Z,24.00
2019-03-10T23:49:34.582Z,23.30
2019-03-10T23:54:36.367Z,26.87
2019-03-10T23:59:38.163Z,24.43
